CheckWX is a tool to help pilots better visualize weather data.  It is not intended as a substitute for an official pre-flight weather briefing.

21:40:42 UTC

KPAN METAR
Payson Airport
Payson, Arizona, USA
Current

26 mins ago

KPAN 232115Z AUTO 22006KT 10SM FEW039 FEW044 OVC060 11/02 A3009 RMK AO2
Observed
May-23 @ 21:15 UTC
Wind
  • 220° at 6 KTS
Visibility
10 SM
Flight Rules
VFR
Cloud Levels
  • Few at 3,900' AGL
  • Few at 4,400' AGL
  • Overcast at 6,000' AGL
Temperature
11°C / 52°F
Dewpoint
C / 36°F
Humidity
54%
Altimeter
30.09" Hg
Pressure
1018.92 hPa
Previous

46 mins ago

KPAN 232055Z AUTO 22006G12KT 10SM FEW032 SCT037 BKN043 11/02 A3008 RMK AO2
Observed
May-23 @ 20:55 UTC
Wind
  • 220° at 6 KTS
  • Gusting to 12 KTS
Visibility
10 SM
Flight Rules
VFR
Cloud Levels
  • Few at 3,200' AGL
  • Scattered at 3,700' AGL
  • Broken at 4,300' AGL
Temperature
11°C / 52°F
Dewpoint
C / 36°F
Humidity
54%
Altimeter
30.08" Hg
Pressure
1018.62 hPa
Previous

1 hour ago

KPAN 232035Z AUTO VRB06KT 10SM SCT030 SCT039 BKN060 10/01 A3008 RMK AO2
Observed
May-23 @ 20:35 UTC
Wind
  • Variable at 6 KTS
Visibility
10 SM
Flight Rules
VFR
Cloud Levels
  • Scattered at 3,000' AGL
  • Scattered at 3,900' AGL
  • Broken at 6,000' AGL
Temperature
10°C / 50°F
Dewpoint
C / 34°F
Humidity
54%
Altimeter
30.08" Hg
Pressure
1018.62 hPa